Time;durP1;ratioP1;P1;durP2;ratioP2;P2;SDS_P1;SDS_P2;PMS_P1;PMS_P2;Temp;Humidity;BMP_temperature;BMP_pressure;BME280_temperature;BME280_humidity;BME280_pressure;Samples;Min_cycle;Max_cycle;Signal;HPM_P1;HPM_P2
2022/09/07 00:00:37;;;;;;;7.18;1.92;;;22.10;95.00;;;;;;5030465;28;20032;-62
2022/09/07 00:03:03;;;;;;;5.38;1.88;;;22.20;95.00;;;;;;5032633;28;20106;-61
2022/09/07 00:05:30;;;;;;;7.03;2.05;;;22.40;95.40;;;;;;5033453;28;20025;-62
2022/09/07 00:07:56;;;;;;;5.03;1.75;;;22.30;95.50;;;;;;5035555;28;20030;-61
2022/09/07 00:10:22;;;;;;;13.93;1.83;;;22.40;95.00;;;;;;5031126;28;20455;-61
2022/09/07 00:12:49;;;;;;;7.38;1.90;;;22.50;95.70;;;;;;5031638;28;20024;-60
2022/09/07 00:15:14;;;;;;;13.57;2.13;;;22.30;97.30;;;;;;5030509;28;20037;-61
2022/09/07 00:17:40;;;;;;;14.10;1.90;;;22.00;98.70;;;;;;5031997;28;20398;-61
2022/09/07 00:20:08;;;;;;;20.48;1.95;;;21.80;99.90;;;;;;5031827;28;20044;-61
2022/09/07 00:22:33;;;;;;;8.13;1.48;;;21.60;99.90;;;;;;5032855;28;20025;-61
2022/09/07 00:24:59;;;;;;;12.90;1.65;;;21.40;99.90;;;;;;5029131;28;20040;-60
2022/09/07 00:27:25;;;;;;;11.48;1.92;;;21.20;99.90;;;;;;5030437;28;20094;-60
2022/09/07 00:29:50;;;;;;;9.35;1.52;;;21.10;99.90;;;;;;5031508;28;20509;-60
2022/09/07 00:32:16;;;;;;;11.60;1.55;;;20.90;99.90;;;;;;5041604;28;20045;-60
2022/09/07 00:34:42;;;;;;;11.25;1.17;;;20.90;99.90;;;;;;5035168;28;20028;-61
2022/09/07 00:37:08;;;;;;;7.53;1.20;;;20.80;99.90;;;;;;5027940;28;20413;-61
2022/09/07 00:39:34;;;;;;;6.68;1.38;;;20.70;99.90;;;;;;5030392;28;20401;-60
2022/09/07 00:42:00;;;;;;;9.73;1.17;;;20.60;99.90;;;;;;5027870;28;20025;-61
2022/09/07 00:45:02;;;;;;;2.53;1.00;;;20.50;99.90;;;;;;5030337;28;20044;-61
2022/09/07 00:47:43;;;;;;;4.85;0.80;;;20.40;99.90;;;;;;5034932;28;20022;-61
2022/09/07 00:50:31;;;;;;;3.03;0.90;;;20.30;99.90;;;;;;5032317;28;20389;-60
2022/09/07 00:53:07;;;;;;;5.97;1.00;;;20.20;99.90;;;;;;5027687;28;20034;-61
2022/09/07 00:55:36;;;;;;;5.05;1.00;;;20.00;99.90;;;;;;5028061;28;20030;-60
2022/09/07 00:58:03;;;;;;;4.57;0.90;;;19.90;99.90;;;;;;5032643;28;20386;-61
2022/09/07 01:00:30;;;;;;;5.63;0.90;;;19.90;99.90;;;;;;5028079;28;20022;-60
2022/09/07 01:02:56;;;;;;;2.80;0.90;;;19.90;99.90;;;;;;5030512;28;20021;-60
2022/09/07 01:05:25;;;;;;;3.75;0.80;;;19.90;99.90;;;;;;5030070;28;20095;-60
2022/09/07 01:07:55;;;;;;;8.60;1.10;;;19.80;99.90;;;;;;5028081;28;20048;-60
2022/09/07 01:10:23;;;;;;;5.13;1.10;;;19.60;99.90;;;;;;5030145;28;20063;-60
2022/09/07 01:12:49;;;;;;;3.22;1.10;;;19.40;99.90;;;;;;5025827;28;20014;-60
2022/09/07 01:15:15;;;;;;;6.40;1.30;;;19.20;99.90;;;;;;5025769;28;20131;-60
2022/09/07 01:18:28;;;;;;;3.42;1.00;;;19.00;99.90;;;;;;5030027;28;20428;-60
2022/09/07 01:21:04;;;;;;;4.57;1.40;;;18.70;99.90;;;;;;5018713;28;20477;-60
2022/09/07 01:23:53;;;;;;;5.30;1.60;;;18.40;99.90;;;;;;5021389;28;20041;-60
2022/09/07 01:26:39;;;;;;;7.00;1.70;;;18.10;99.90;;;;;;5005171;28;20030;-60
2022/09/07 01:29:22;;;;;;;7.35;1.88;;;17.90;99.90;;;;;;5005719;28;20135;-61
2022/09/07 01:32:01;;;;;;;8.48;2.33;;;17.80;99.90;;;;;;5002643;28;20018;-61
2022/09/07 01:34:27;;;;;;;6.85;2.20;;;17.70;99.90;;;;;;5009452;28;20133;-62
2022/09/07 01:37:20;;;;;;;13.05;2.63;;;17.60;99.90;;;;;;5006627;28;20475;-62
2022/09/07 01:40:08;;;;;;;7.55;2.03;;;17.50;99.90;;;;;;5006461;28;20432;-63
2022/09/07 01:42:53;;;;;;;6.72;1.80;;;17.50;99.90;;;;;;4996642;28;20030;-63
2022/09/07 01:45:23;;;;;;;11.25;1.77;;;17.40;99.90;;;;;;5009299;28;20110;-63
2022/09/07 01:47:52;;;;;;;;;;;17.40;99.90;;;;;;5009431;28;20481;-63
2022/09/07 01:50:30;;;;;;;9.40;1.80;;;17.40;99.90;;;;;;5006750;28;19909;-63
2022/09/07 01:53:07;;;;;;;8.88;1.67;;;17.30;99.90;;;;;;5000785;28;20627;-63
2022/09/07 01:55:42;;;;;;;6.20;1.40;;;17.20;99.90;;;;;;5008196;28;20049;-64
2022/09/07 01:58:19;;;;;;;6.25;1.48;;;17.10;99.90;;;;;;5007237;28;20106;-64
2022/09/07 02:00:55;;;;;;;7.13;1.58;;;17.10;99.90;;;;;;5000949;28;20096;-64
2022/09/07 02:03:39;;;;;;;6.50;1.80;;;17.10;99.90;;;;;;5009293;28;20025;-65
2022/09/07 02:06:23;;;;;;;6.93;1.65;;;17.20;99.90;;;;;;5008162;28;20083;-64
2022/09/07 02:08:57;;;;;;;6.18;1.50;;;17.20;99.90;;;;;;5019940;28;20026;-64
2022/09/07 02:11:31;;;;;;;3.67;1.30;;;17.10;99.90;;;;;;4999583;28;20014;-64
2022/09/07 02:14:06;;;;;;;6.95;1.60;;;17.20;99.90;;;;;;5004472;28;20430;-65
2022/09/07 02:16:37;;;;;;;4.78;1.40;;;17.20;99.90;;;;;;5009139;28;20072;-64
2022/09/07 02:19:09;;;;;;;6.55;1.63;;;17.10;99.90;;;;;;5006675;28;20030;-64
2022/09/07 02:21:47;;;;;;;5.57;1.50;;;17.20;99.90;;;;;;5027523;28;20369;-64
2022/09/07 02:24:19;;;;;;;5.55;1.30;;;17.20;99.90;;;;;;5041888;28;20070;-64
2022/09/07 02:26:48;;;;;;;4.82;1.73;;;17.20;99.90;;;;;;5027578;28;20037;-64
2022/09/07 02:29:14;;;;;;;5.18;1.55;;;17.20;99.90;;;;;;5029318;28;20045;-64
2022/09/07 02:31:40;;;;;;;5.78;1.60;;;17.20;99.90;;;;;;5040508;28;20049;-65
2022/09/07 02:34:06;;;;;;;5.72;1.75;;;17.20;99.90;;;;;;5039601;28;20693;-64
2022/09/07 02:36:38;;;;;;;6.43;1.75;;;17.10;99.90;;;;;;5045885;28;20056;-64
2022/09/07 02:39:04;;;;;;;4.55;1.60;;;17.10;99.90;;;;;;5028381;28;20048;-64
2022/09/07 02:41:42;;;;;;;5.03;1.40;;;17.10;99.90;;;;;;5022202;28;20493;-65
2022/09/07 02:44:12;;;;;;;5.30;1.83;;;17.10;99.90;;;;;;5051774;28;20017;-65
2022/09/07 02:47:06;;;;;;;4.95;1.67;;;17.00;99.90;;;;;;5028078;28;20028;-64
2022/09/07 02:49:32;;;;;;;6.88;1.90;;;17.00;99.90;;;;;;5033115;28;20091;-65
2022/09/07 02:52:10;;;;;;;5.80;2.03;;;17.00;99.90;;;;;;5028847;28;20034;-65
2022/09/07 02:54:53;;;;;;;5.75;1.90;;;17.00;99.90;;;;;;5031797;28;20025;-65
2022/09/07 02:57:52;;;;;;;5.82;1.73;;;17.00;99.90;;;;;;5028620;28;20108;-64
2022/09/07 03:00:24;;;;;;;8.07;1.90;;;16.90;99.90;;;;;;5026129;28;20052;-65
2022/09/07 03:03:29;;;;;;;10.85;2.13;;;17.00;99.90;;;;;;5027348;28;20107;-65
2022/09/07 03:06:01;;;;;;;6.63;2.30;;;17.10;99.90;;;;;;5039402;28;20037;-64
2022/09/07 03:08:52;;;;;;;6.80;2.20;;;17.00;99.90;;;;;;5034729;28;20531;-64
2022/09/07 03:11:18;;;;;;;5.88;2.30;;;17.10;99.90;;;;;;5019801;28;20286;-65
2022/09/07 03:13:44;;;;;;;5.97;2.00;;;17.00;99.90;;;;;;5025590;28;20037;-65
2022/09/07 03:16:14;;;;;;;6.78;2.22;;;17.00;99.90;;;;;;5045212;28;20314;-65
2022/09/07 03:18:41;;;;;;;6.63;2.00;;;16.90;99.90;;;;;;5028690;28;20026;-65
2022/09/07 03:21:06;;;;;;;8.00;2.22;;;16.80;99.90;;;;;;5030186;28;20417;-65
2022/09/07 03:23:32;;;;;;;6.03;1.73;;;16.90;99.90;;;;;;5029113;28;20045;-65
2022/09/07 03:25:58;;;;;;;5.72;1.80;;;16.90;99.90;;;;;;5034917;28;20029;-65
2022/09/07 03:28:24;;;;;;;5.60;1.85;;;16.90;99.90;;;;;;5028722;28;20068;-65
2022/09/07 03:30:49;;;;;;;7.20;2.15;;;16.80;99.90;;;;;;5036348;28;20053;-65
2022/09/07 03:33:15;;;;;;;6.55;2.13;;;16.80;99.90;;;;;;5036054;28;20096;-65
2022/09/07 03:35:55;;;;;;;9.20;1.83;;;16.70;99.90;;;;;;5032994;28;20057;-65
2022/09/07 03:38:20;;;;;;;10.27;2.40;;;16.60;99.90;;;;;;5030053;28;20021;-65
2022/09/07 03:40:56;;;;;;;6.75;2.00;;;16.60;99.90;;;;;;5033022;28;20277;-65
2022/09/07 03:43:23;;;;;;;8.15;2.30;;;16.50;99.90;;;;;;5024531;28;20490;-65
2022/09/07 03:45:49;;;;;;;6.68;2.40;;;16.40;99.90;;;;;;5025722;28;20029;-65
2022/09/07 03:48:15;;;;;;;7.97;2.65;;;16.50;99.90;;;;;;5050158;28;20032;-65
2022/09/07 03:50:40;;;;;;;11.40;2.25;;;16.50;99.90;;;;;;5020506;28;20026;-65
2022/09/07 03:53:06;;;;;;;6.30;2.13;;;16.40;99.90;;;;;;5034341;28;20035;-65
2022/09/07 03:55:31;;;;;;;5.80;2.20;;;16.30;99.90;;;;;;5030313;28;20104;-65
2022/09/07 03:57:57;;;;;;;5.50;2.00;;;16.10;99.90;;;;;;5025572;28;20076;-65
2022/09/07 04:00:23;;;;;;;5.93;2.20;;;16.00;99.90;;;;;;5043561;28;20029;-66
2022/09/07 04:02:48;;;;;;;6.28;2.35;;;15.90;99.90;;;;;;5028707;28;20037;-65
2022/09/07 04:05:14;;;;;;;6.68;2.10;;;15.80;99.90;;;;;;5037979;28;20025;-65
2022/09/07 04:07:40;;;;;;;6.28;2.25;;;15.70;99.90;;;;;;5028366;28;20509;-64
2022/09/07 04:10:06;;;;;;;5.82;2.22;;;15.70;99.90;;;;;;5026067;28;20585;-64
2022/09/07 04:12:31;;;;;;;7.07;2.70;;;15.80;99.90;;;;;;5027570;28;20025;-64
2022/09/07 04:14:57;;;;;;;7.05;2.30;;;15.80;99.90;;;;;;5023899;28;20041;-65
2022/09/07 04:17:23;;;;;;;9.05;2.80;;;15.70;99.90;;;;;;5023170;28;20030;-65
2022/09/07 04:19:48;;;;;;;8.20;2.92;;;16.00;99.90;;;;;;5028350;28;20021;-65
2022/09/07 04:22:14;;;;;;;8.05;3.47;;;16.10;99.90;;;;;;5030989;28;20017;-65
2022/09/07 04:24:40;;;;;;;7.20;2.80;;;16.10;99.90;;;;;;5029649;28;20113;-65
2022/09/07 04:27:05;;;;;;;7.57;2.60;;;16.10;99.90;;;;;;5032377;28;20025;-65
2022/09/07 04:29:31;;;;;;;9.27;3.10;;;16.00;99.90;;;;;;5029623;28;20533;-66
2022/09/07 04:31:57;;;;;;;7.38;2.90;;;15.90;99.90;;;;;;5031497;28;20067;-66
2022/09/07 04:34:22;;;;;;;7.80;2.92;;;15.80;99.90;;;;;;5028844;28;20112;-69
2022/09/07 04:36:48;;;;;;;8.68;3.30;;;15.60;99.90;;;;;;5033460;28;20037;-70
2022/09/07 04:39:14;;;;;;;11.15;3.38;;;15.70;99.90;;;;;;5036900;28;20017;-69
2022/09/07 04:41:39;;;;;;;8.63;3.40;;;15.90;99.90;;;;;;5035356;28;20024;-69
2022/09/07 04:44:06;;;;;;;7.50;3.15;;;15.90;99.90;;;;;;5034548;28;20473;-69
2022/09/07 04:46:34;;;;;;;8.55;3.38;;;16.00;99.90;;;;;;5041596;28;20013;-69
2022/09/07 04:49:05;;;;;;;8.82;3.47;;;16.00;99.90;;;;;;5039989;28;20104;-69
2022/09/07 04:51:32;;;;;;;9.15;3.53;;;16.00;99.90;;;;;;5036345;28;20033;-69
2022/09/07 04:54:00;;;;;;;8.80;3.30;;;15.80;99.90;;;;;;5033327;28;20060;-69
2022/09/07 04:56:26;;;;;;;11.88;3.55;;;15.70;99.90;;;;;;5037614;28;20030;-67
2022/09/07 04:58:52;;;;;;;11.05;3.40;;;15.50;99.90;;;;;;5033254;28;20428;-67
2022/09/07 05:01:20;;;;;;;8.73;3.88;;;15.40;99.90;;;;;;5032006;28;20040;-66
2022/09/07 05:03:46;;;;;;;8.48;3.67;;;15.40;99.90;;;;;;5033035;28;20030;-67
2022/09/07 05:06:12;;;;;;;10.18;3.90;;;15.20;99.90;;;;;;5034209;28;20052;-69
2022/09/07 05:08:41;;;;;;;8.63;3.33;;;15.10;99.90;;;;;;5034297;28;20067;-69
2022/09/07 05:11:07;;;;;;;9.23;3.83;;;15.10;99.90;;;;;;5034429;28;20020;-69
2022/09/07 05:13:34;;;;;;;7.60;3.55;;;15.10;99.90;;;;;;5032081;28;20021;-70
2022/09/07 05:16:05;;;;;;;8.20;3.72;;;15.20;99.90;;;;;;5034177;28;20497;-69
2022/09/07 05:18:32;;;;;;;8.90;3.75;;;15.20;99.90;;;;;;5030800;28;20041;-68
2022/09/07 05:21:08;;;;;;;8.35;4.13;;;15.10;99.90;;;;;;5027457;28;20543;-67
2022/09/07 05:23:34;;;;;;;10.23;3.92;;;15.30;99.90;;;;;;5028876;28;20033;-67
2022/09/07 05:26:00;;;;;;;9.57;4.00;;;15.30;99.90;;;;;;5029558;28;20025;-67
2022/09/07 05:28:25;;;;;;;10.45;3.70;;;15.30;99.90;;;;;;5025112;28;20052;-68
2022/09/07 05:30:51;;;;;;;9.80;4.05;;;15.30;99.90;;;;;;5029240;28;20080;-67
2022/09/07 05:33:17;;;;;;;8.05;3.90;;;15.40;99.90;;;;;;5030157;28;20026;-66
2022/09/07 05:35:42;;;;;;;9.98;4.07;;;15.50;99.90;;;;;;5030696;28;20028;-67
2022/09/07 05:38:08;;;;;;;9.52;4.20;;;15.40;99.90;;;;;;5022709;28;20107;-67
2022/09/07 05:40:34;;;;;;;9.05;4.30;;;15.50;99.90;;;;;;5029744;28;20117;-65
2022/09/07 05:42:59;;;;;;;10.57;4.57;;;15.50;99.90;;;;;;5027166;28;20120;-66
2022/09/07 05:45:25;;;;;;;10.85;4.82;;;15.60;99.90;;;;;;5028930;28;20695;-66
2022/09/07 05:47:51;;;;;;;11.55;5.07;;;15.70;99.90;;;;;;5027050;28;20029;-67
2022/09/07 05:50:17;;;;;;;10.98;4.97;;;15.80;99.90;;;;;;5025866;28;20100;-67
2022/09/07 05:52:44;;;;;;;11.07;4.65;;;15.80;99.90;;;;;;5028028;28;20525;-67
2022/09/07 05:55:10;;;;;;;11.90;5.15;;;15.80;99.90;;;;;;5024881;28;20049;-67
2022/09/07 05:57:36;;;;;;;13.20;5.28;;;15.90;99.90;;;;;;5041331;28;20038;-67
2022/09/07 06:00:03;;;;;;;13.00;5.15;;;15.90;99.90;;;;;;5026584;28;20703;-67
2022/09/07 06:02:28;;;;;;;14.02;5.78;;;16.00;99.90;;;;;;5026405;28;20105;-67
2022/09/07 06:04:54;;;;;;;12.38;5.68;;;16.10;99.90;;;;;;5039156;28;20505;-67
2022/09/07 06:07:20;;;;;;;12.38;5.57;;;16.20;99.90;;;;;;5036950;28;20516;-66
2022/09/07 06:09:45;;;;;;;11.48;5.47;;;16.30;99.90;;;;;;5026913;28;20036;-67
2022/09/07 06:12:11;;;;;;;12.57;5.75;;;16.30;99.90;;;;;;5025062;28;20025;-67
2022/09/07 06:14:36;;;;;;;13.63;6.20;;;16.40;99.90;;;;;;5016558;28;20129;-67
2022/09/07 06:17:02;;;;;;;15.65;6.78;;;16.50;99.90;;;;;;5037981;28;20028;-67
2022/09/07 06:19:28;;;;;;;13.05;6.40;;;16.60;99.90;;;;;;5035981;28;20028;-66
2022/09/07 06:21:53;;;;;;;15.25;6.05;;;16.60;99.90;;;;;;5027247;28;20133;-67
2022/09/07 06:24:19;;;;;;;12.48;5.57;;;16.70;99.90;;;;;;5035714;28;20037;-67
2022/09/07 06:26:45;;;;;;;12.80;6.15;;;16.70;99.90;;;;;;5032033;28;20744;-66
2022/09/07 06:29:12;;;;;;;15.95;5.65;;;16.70;99.90;;;;;;5032372;28;20378;-66
2022/09/07 06:31:37;;;;;;;13.18;6.35;;;16.70;99.90;;;;;;5030115;28;20041;-71
2022/09/07 06:34:03;;;;;;;12.32;5.85;;;16.80;99.90;;;;;;5037837;28;20075;-67
2022/09/07 06:36:29;;;;;;;13.43;6.63;;;17.00;99.90;;;;;;5038700;28;20167;-67
2022/09/07 06:39:00;;;;;;;15.13;5.97;;;17.10;99.90;;;;;;5020694;28;20025;-67
2022/09/07 06:41:28;;;;;;;12.85;6.05;;;17.40;99.90;;;;;;5017174;28;20416;-67
2022/09/07 06:43:55;;;;;;;13.18;6.25;;;17.70;99.90;;;;;;5020392;28;20029;-67
2022/09/07 06:46:21;;;;;;;12.95;6.13;;;17.80;99.90;;;;;;5025711;28;20055;-67
2022/09/07 06:48:51;;;;;;;12.00;5.78;;;17.80;99.90;;;;;;5033055;28;20025;-67
2022/09/07 06:51:19;;;;;;;12.07;5.53;;;18.00;99.90;;;;;;5024033;28;20380;-67
2022/09/07 06:53:47;;;;;;;15.27;6.18;;;18.10;99.90;;;;;;5027116;28;20268;-67
2022/09/07 06:56:15;;;;;;;10.20;5.03;;;18.00;99.90;;;;;;5026182;28;20465;-67
2022/09/07 06:58:41;;;;;;;12.05;5.03;;;17.90;99.90;;;;;;5026898;28;20092;-67
2022/09/07 07:01:13;;;;;;;10.73;4.78;;;18.00;99.90;;;;;;5026531;28;20104;-67
2022/09/07 07:03:39;;;;;;;15.75;5.13;;;17.90;99.90;;;;;;5023479;28;20082;-67
2022/09/07 07:06:05;;;;;;;14.40;4.53;;;17.90;99.90;;;;;;5022274;28;20477;-67
2022/09/07 07:08:31;;;;;;;10.98;4.93;;;18.00;99.90;;;;;;5026987;28;20439;-67
2022/09/07 07:11:02;;;;;;;11.73;4.10;;;18.20;99.90;;;;;;5018555;28;20393;-67
2022/09/07 07:13:28;;;;;;;8.82;3.60;;;18.20;99.90;;;;;;5026848;28;20025;-67
2022/09/07 07:16:04;;;;;;;7.20;3.05;;;18.40;99.90;;;;;;5037232;28;20045;-66
2022/09/07 07:18:30;;;;;;;6.95;2.85;;;18.40;99.90;;;;;;5026722;28;20423;-67
2022/09/07 07:20:56;;;;;;;10.05;2.95;;;18.60;99.90;;;;;;5019316;28;20049;-66
2022/09/07 07:23:21;;;;;;;7.53;2.88;;;18.70;99.90;;;;;;5025570;28;20033;-66
2022/09/07 07:25:47;;;;;;;6.97;2.55;;;18.70;99.90;;;;;;5026710;28;20032;-66
2022/09/07 07:28:13;;;;;;;8.32;3.15;;;18.80;99.90;;;;;;5025425;28;20057;-67
2022/09/07 07:30:39;;;;;;;8.80;2.92;;;18.90;99.90;;;;;;5026996;28;20025;-67
2022/09/07 07:33:06;;;;;;;9.60;2.55;;;19.10;99.90;;;;;;5024660;28;20025;-66
2022/09/07 07:35:33;;;;;;;7.18;2.72;;;19.20;99.90;;;;;;5025551;28;20060;-66
2022/09/07 07:37:58;;;;;;;7.72;2.90;;;19.40;99.90;;;;;;5025878;28;20038;-67
2022/09/07 07:40:25;;;;;;;6.18;2.28;;;19.50;99.90;;;;;;5025569;28;20065;-67
2022/09/07 07:42:51;;;;;;;6.30;2.00;;;19.70;99.90;;;;;;5025358;28;20025;-66
2022/09/07 07:45:16;;;;;;;6.45;2.22;;;19.70;99.90;;;;;;5023967;28;20044;-66
2022/09/07 07:47:42;;;;;;;6.20;2.00;;;19.80;99.90;;;;;;5026323;28;20022;-66
2022/09/07 07:50:08;;;;;;;7.07;1.95;;;19.90;99.90;;;;;;5025101;28;20025;-66
2022/09/07 07:52:36;;;;;;;6.35;1.92;;;20.20;99.90;;;;;;5024788;28;20037;-66
2022/09/07 07:55:03;;;;;;;5.13;1.92;;;20.30;99.90;;;;;;5029652;28;20083;-66
2022/09/07 07:57:29;;;;;;;5.78;1.98;;;20.50;99.90;;;;;;5029927;28;20446;-67
2022/09/07 07:59:55;;;;;;;5.82;2.00;;;20.90;99.90;;;;;;5029025;28;20022;-67
2022/09/07 08:02:21;;;;;;;7.45;1.95;;;21.00;99.90;;;;;;5029794;28;20024;-67
2022/09/07 08:04:46;;;;;;;7.07;2.10;;;21.20;99.90;;;;;;5030064;28;20057;-67
2022/09/07 08:07:14;;;;;;;6.68;2.15;;;21.30;99.90;;;;;;5029154;28;20129;-66
2022/09/07 08:09:40;;;;;;;6.38;1.80;;;21.20;99.90;;;;;;5030189;28;20087;-67
2022/09/07 08:12:10;;;;;;;5.25;1.77;;;21.20;99.90;;;;;;5024199;28;20438;-67
2022/09/07 08:14:39;;;;;;;6.22;1.80;;;21.40;99.90;;;;;;5023062;28;20040;-67
2022/09/07 08:17:06;;;;;;;9.35;2.17;;;21.80;99.90;;;;;;5029481;28;20056;-67
2022/09/07 08:19:32;;;;;;;9.32;1.90;;;22.10;99.90;;;;;;5025825;28;20029;-67
2022/09/07 08:21:57;;;;;;;5.82;1.80;;;22.30;99.90;;;;;;5044185;28;20063;-67
2022/09/07 08:24:23;;;;;;;4.88;1.70;;;22.10;99.90;;;;;;5044681;28;20033;-66
2022/09/07 08:26:49;;;;;;;7.15;1.85;;;22.00;99.90;;;;;;5028010;28;20052;-67
2022/09/07 08:29:15;;;;;;;6.30;1.70;;;21.80;99.90;;;;;;5029186;28;20038;-67
2022/09/07 08:31:40;;;;;;;6.03;1.80;;;22.10;99.90;;;;;;5029582;28;20151;-67
2022/09/07 08:34:06;;;;;;;6.20;1.75;;;22.20;99.90;;;;;;5029075;28;20167;-67
2022/09/07 08:36:32;;;;;;;8.68;1.77;;;22.10;99.90;;;;;;5028267;28;20052;-66
2022/09/07 08:38:58;;;;;;;7.82;2.10;;;22.10;99.90;;;;;;5026700;28;20036;-66
2022/09/07 08:41:43;;;;;;;6.28;1.85;;;22.40;99.90;;;;;;5028111;28;20163;-66
2022/09/07 08:44:20;;;;;;;7.35;1.80;;;22.50;99.90;;;;;;5025133;28;20018;-66
2022/09/07 08:47:00;;;;;;;6.25;1.70;;;22.50;99.90;;;;;;5029245;28;20014;-67
2022/09/07 08:49:50;;;;;;;4.68;1.75;;;22.80;99.90;;;;;;5029291;28;20014;-67
2022/09/07 08:52:21;;;;;;;5.18;1.67;;;23.10;99.90;;;;;;5038337;28;20103;-67
2022/09/07 08:55:14;;;;;;;3.35;1.20;;;23.00;99.90;;;;;;5022495;28;20064;-66
2022/09/07 08:57:53;;;;;;;5.35;1.45;;;22.80;99.90;;;;;;5022463;28;20021;-66
2022/09/07 09:00:19;;;;;;;5.75;1.30;;;23.60;99.90;;;;;;5014757;28;20029;-67
2022/09/07 09:02:45;;;;;;;3.67;1.20;;;24.60;99.90;;;;;;5029559;28;20381;-67
2022/09/07 09:05:22;;;;;;;7.38;1.60;;;25.10;99.90;;;;;;5028029;28;20018;-67
2022/09/07 09:07:56;;;;;;;4.07;1.42;;;25.80;99.90;;;;;;5028949;28;20311;-66
2022/09/07 09:10:59;;;;;;;4.45;1.30;;;25.90;99.90;;;;;;5042371;28;20113;-66
2022/09/07 09:14:02;;;;;;;4.63;1.60;;;25.90;99.90;;;;;;5043890;28;20497;-67
2022/09/07 09:16:53;;;;;;;6.97;1.63;;;25.20;99.90;;;;;;5022001;28;20049;-66
2022/09/07 09:19:43;;;;;;;6.38;1.63;;;25.30;99.90;;;;;;5028036;28;20134;-66
2022/09/07 09:22:25;;;;;;;3.92;1.40;;;26.20;99.90;;;;;;5027780;28;20049;-66
2022/09/07 09:24:52;;;;;;;4.25;1.58;;;26.60;99.90;;;;;;5025963;28;20041;-68
2022/09/07 09:27:18;;;;;;;5.88;1.60;;;27.10;99.90;;;;;;5028429;28;20028;-67
2022/09/07 09:29:44;;;;;;;3.88;1.60;;;27.20;99.90;;;;;;5028177;28;20100;-67
2022/09/07 09:32:33;;;;;;;6.70;1.80;;;26.60;99.90;;;;;;5021880;28;20481;-67
2022/09/07 09:35:01;;;;;;;4.88;1.40;;;26.70;99.90;;;;;;5026880;28;20389;-67
2022/09/07 09:37:38;;;;;;;6.50;1.65;;;26.90;99.90;;;;;;5024257;28;20060;-67
2022/09/07 09:40:06;;;;;;;4.32;1.60;;;26.70;99.90;;;;;;5024661;28;20104;-67
2022/09/07 09:42:34;;;;;;;7.20;1.80;;;26.60;99.90;;;;;;5026860;28;20424;-66
2022/09/07 09:45:15;;;;;;;5.38;1.58;;;27.00;99.90;;;;;;5027429;28;20104;-67
2022/09/07 09:47:50;;;;;;;5.53;1.77;;;27.90;99.70;;;;;;5028337;28;20055;-67
2022/09/07 09:50:35;;;;;;;5.00;1.70;;;28.70;98.30;;;;;;5018574;28;20450;-67
2022/09/07 09:53:04;;;;;;;4.78;1.60;;;29.60;95.60;;;;;;5027273;28;20512;-67
2022/09/07 09:55:35;;;;;;;3.88;1.55;;;29.70;94.50;;;;;;5028233;28;20525;-67
2022/09/07 09:58:25;;;;;;;4.80;1.40;;;28.90;95.10;;;;;;5025024;28;20554;-67
2022/09/07 10:01:02;;;;;;;4.32;1.58;;;28.70;95.40;;;;;;5024298;28;20045;-67
2022/09/07 10:03:31;;;;;;;4.85;1.60;;;29.00;95.50;;;;;;5025265;28;20053;-67
2022/09/07 10:05:58;;;;;;;5.95;1.65;;;30.00;93.50;;;;;;5029819;28;20035;-67
2022/09/07 10:08:29;;;;;;;10.60;2.35;;;30.20;92.20;;;;;;5025870;28;20422;-66
2022/09/07 10:11:07;;;;;;;16.55;2.35;;;29.00;94.00;;;;;;5023878;28;20564;-66
2022/09/07 10:13:51;;;;;;;9.13;2.05;;;28.30;94.80;;;;;;5027767;28;20018;-66
2022/09/07 10:16:17;;;;;;;5.75;1.75;;;28.00;95.80;;;;;;5019849;28;20179;-67
2022/09/07 10:18:57;;;;;;;4.85;1.80;;;28.60;95.50;;;;;;5042540;28;20116;-67
2022/09/07 10:21:28;;;;;;;4.97;1.85;;;28.30;95.30;;;;;;5024198;28;20095;-67
2022/09/07 10:24:06;;;;;;;5.22;2.00;;;28.10;96.00;;;;;;5022630;28;20025;-67
2022/09/07 10:26:33;;;;;;;6.65;2.10;;;27.90;95.70;;;;;;5026404;28;20499;-67
2022/09/07 10:29:15;;;;;;;5.13;1.90;;;27.70;96.50;;;;;;5025193;28;20245;-67
2022/09/07 10:32:10;;;;;;;6.72;2.03;;;28.50;95.70;;;;;;5023109;28;20018;-67
2022/09/07 10:34:35;;;;;;;6.28;2.35;;;28.90;95.70;;;;;;5041949;28;20057;-67
2022/09/07 10:37:03;;;;;;;8.10;2.35;;;29.20;94.00;;;;;;5026348;28;20053;-67
2022/09/07 10:40:01;;;;;;;8.25;2.78;;;28.20;94.80;;;;;;5027295;28;20100;-67
2022/09/07 10:42:31;;;;;;;6.93;2.15;;;28.00;95.10;;;;;;5015223;28;20103;-67
2022/09/07 10:45:18;;;;;;;6.72;2.15;;;27.80;95.90;;;;;;5020776;28;20407;-67
2022/09/07 10:47:56;;;;;;;5.70;2.20;;;27.60;96.90;;;;;;5026483;28;20163;-67
2022/09/07 10:50:43;;;;;;;5.88;2.50;;;27.30;97.30;;;;;;5040062;28;20059;-67
2022/09/07 10:53:40;;;;;;;6.05;2.63;;;26.80;98.60;;;;;;5025032;28;20108;-66
2022/09/07 10:56:41;;;;;;;8.18;2.85;;;25.50;99.90;;;;;;5024248;28;20131;-67
2022/09/07 10:59:48;;;;;;;6.95;2.38;;;25.00;99.90;;;;;;5022761;28;20422;-67
2022/09/07 11:02:44;;;;;;;8.45;2.60;;;24.80;99.90;;;;;;5023843;28;20052;-67
2022/09/07 11:05:31;;;;;;;7.82;2.70;;;26.50;99.90;;;;;;5030931;28;20565;-67
2022/09/07 11:08:06;;;;;;;6.82;2.70;;;28.20;98.20;;;;;;5022935;28;20033;-67
2022/09/07 11:11:03;;;;;;;6.00;2.42;;;29.40;96.60;;;;;;5024481;28;20052;-67
2022/09/07 11:13:31;;;;;;;7.30;2.50;;;29.70;94.40;;;;;;5024629;28;20416;-67
2022/09/07 11:16:01;;;;;;;5.70;2.00;;;30.70;91.50;;;;;;5026288;28;20092;-67
2022/09/07 11:18:33;;;;;;;4.95;1.80;;;31.60;89.60;;;;;;5026803;28;20027;-67
2022/09/07 11:21:02;;;;;;;5.38;2.10;;;31.10;87.80;;;;;;5026295;28;20041;-67
2022/09/07 11:23:37;;;;;;;4.13;1.40;;;31.20;88.10;;;;;;5025263;28;20170;-67
2022/09/07 11:26:28;;;;;;;6.10;2.20;;;30.20;89.40;;;;;;5022875;28;20511;-67
2022/09/07 11:29:05;;;;;;;5.15;2.05;;;28.90;91.20;;;;;;5020016;28;20424;-67
2022/09/07 11:31:40;;;;;;;6.53;2.25;;;29.00;91.90;;;;;;5030067;28;20128;-66
2022/09/07 11:34:30;;;;;;;5.25;2.03;;;30.10;91.10;;;;;;5032855;28;20553;-66
2022/09/07 11:37:36;;;;;;;5.55;1.90;;;31.30;88.40;;;;;;5043211;28;20096;-66
2022/09/07 11:40:27;;;;;;;7.03;2.10;;;30.90;89.10;;;;;;5018139;28;20053;-66
2022/09/07 11:43:15;;;;;;;6.53;1.85;;;29.90;90.00;;;;;;5027549;28;20022;-66
2022/09/07 11:45:47;;;;;;;7.15;2.00;;;30.30;89.60;;;;;;5030908;28;20029;-66
2022/09/07 11:48:21;;;;;;;5.32;2.08;;;29.00;91.00;;;;;;5033033;28;20477;-66
2022/09/07 11:50:56;;;;;;;7.63;2.20;;;28.10;92.10;;;;;;5026310;28;20029;-67
2022/09/07 11:53:40;;;;;;;5.95;2.33;;;27.00;94.50;;;;;;5032713;28;20025;-67
2022/09/07 11:56:17;;;;;;;7.05;2.40;;;27.30;95.00;;;;;;5032597;28;20116;-66
2022/09/07 11:59:16;;;;;;;7.07;2.70;;;29.30;92.20;;;;;;5032849;28;20036;-67
2022/09/07 12:01:51;;;;;;;7.65;2.42;;;29.20;91.30;;;;;;5032446;28;20104;-67
2022/09/07 12:04:47;;;;;;;6.68;2.60;;;29.90;91.20;;;;;;5031027;28;20021;-67
2022/09/07 12:07:59;;;;;;;7.70;2.92;;;30.40;91.20;;;;;;5029099;28;20030;-66
2022/09/07 12:10:52;;;;;;;8.23;3.58;;;30.30;90.80;;;;;;5025491;28;20037;-66
2022/09/07 12:13:29;;;;;;;9.40;4.75;;;29.00;92.30;;;;;;5048505;28;20040;-67
2022/09/07 12:16:01;;;;;;;7.95;3.50;;;29.70;92.30;;;;;;5029910;28;20432;-67
2022/09/07 12:19:04;;;;;;;6.53;2.90;;;30.30;91.70;;;;;;5023804;28;20040;-67
2022/09/07 12:21:32;;;;;;;7.35;2.70;;;29.50;92.40;;;;;;5029787;28;20073;-67
2022/09/07 12:23:58;;;;;;;5.95;2.60;;;28.20;93.00;;;;;;5029540;28;20034;-67
2022/09/07 12:26:35;;;;;;;6.65;2.22;;;27.60;93.70;;;;;;5033258;28;20488;-67
2022/09/07 12:29:01;;;;;;;5.32;2.08;;;27.10;94.10;;;;;;5035671;28;20025;-66
2022/09/07 12:31:56;;;;;;;7.20;1.90;;;27.00;94.60;;;;;;5031670;28;20488;-66
2022/09/07 12:34:30;;;;;;;7.43;2.03;;;26.70;95.40;;;;;;5031579;28;20509;-67
2022/09/07 12:37:33;;;;;;;4.80;1.90;;;26.30;96.80;;;;;;5032340;28;20087;-67
2022/09/07 12:40:30;;;;;;;5.95;1.95;;;26.80;96.50;;;;;;5027557;28;20132;-66
2022/09/07 12:43:50;;;;;;;6.18;1.80;;;27.20;95.90;;;;;;5026859;28;20022;-66
2022/09/07 12:46:32;;;;;;;4.93;1.50;;;27.20;95.60;;;;;;5026568;28;20548;-66
2022/09/07 12:49:16;;;;;;;4.53;1.30;;;26.60;96.20;;;;;;5029133;28;20029;-66
2022/09/07 12:51:48;;;;;;;7.05;1.92;;;27.20;95.00;;;;;;5026159;28;20268;-66
2022/09/07 12:54:36;;;;;;;10.07;1.92;;;28.60;93.60;;;;;;5025188;28;20022;-67
2022/09/07 12:57:29;;;;;;;6.43;1.95;;;30.20;92.30;;;;;;5023795;28;20013;-66
2022/09/07 12:59:55;;;;;;;6.03;2.10;;;29.40;91.50;;;;;;5029493;28;20124;-67
2022/09/07 13:02:40;;;;;;;5.75;2.00;;;27.40;94.30;;;;;;5026966;28;20121;-67
2022/09/07 13:05:16;;;;;;;6.28;2.10;;;26.90;95.90;;;;;;5027136;28;20401;-67
2022/09/07 13:08:18;;;;;;;5.78;1.90;;;26.50;96.90;;;;;;5023787;28;20069;-67
2022/09/07 13:10:45;;;;;;;6.20;2.50;;;27.00;96.50;;;;;;5021409;28;20100;-66
2022/09/07 13:13:14;;;;;;;5.90;2.03;;;26.90;96.40;;;;;;5029260;28;20093;-66
2022/09/07 13:15:44;;;;;;;6.45;1.80;;;27.60;95.40;;;;;;5029379;28;20029;-66